2 Giugno 2019 | Ceresara

Aviosuperficie di San Martino

Ceresara (MN)

L’evento

Dalle ore 10 al tramonto.

Aperto al pubblico, ingresso gratuito

Galleria foto courtesy di Pierangelo Gatto

TG2 Storie

Il servizio di TG2 Storie sul Museo Volante 2019

Giornata del Volo

Giornata del Volo del 29 Giugno 2019 presso l’aviosuperficie Sorlini di Carzago della Riviera (BS)

Qualche numero dell’edizione 2019

Alcuni numeri statistici sulla partecipazione al Museo Volante 2019

Ultime News

TG2 Storie

Il servizio di TG2 Storie sul Museo Volante 2019

Giornata del Volo

Giornata del Volo del 29 Giugno 2019 presso l’aviosuperficie Sorlini di Carzago della Riviera (BS)

Il Museo Volante C’É !

Il Museo Volante C’É ! Si è regolarmente svolta l’edizione 2019, con una straordinaria pertecipazione di aerei e pubblico.

SIAI S208M

Al Museo Volante sarà presente ufficialmente l’Aeronautica Militare con il velivolo SIAI Marchetti S208M

Falco F8L

Il Falco FL8L I-TINI, splendida macchina progettata da Stelio Frati

Mudry CAP 10B

Questo splendido Mudry CAP 10B, costruito nel 1973 (esemplare n.41), da qualche anno risiede in Italia grazie all’amore del suo proprietario

Bird Dog

Dopo parecchio tempo di fermo macchina questo bellissimo Cessna O-1 Bird Dog è tornato a volare

Harvard e Texan

A dispetto del loro nome, alla base di entrambi c’è lo stesso progetto. Saranno tra gli ospiti della prossima edizione!

I velivoli della collezione Marchi – Sorlini

La collezione è stata iniziata dall’imprenditore bresciano Luciano Sorlini (1925-2015), ed è oggi mantenuta in ordine di volo dalla figlia Silvia e dal marito Giovanni Marchi.

I velivoli ospiti

Alcuni dei velivoli storici partecipanti alle passate edizioni, in gran parte dei Soci HAG (ma è solo un assaggio: ce ne saranno MOLTI altri!)

Comunicato stampa dell’evento

Per chi volesse stampare il volantino della manifestazione (e magari distribuirlo in giro…), eccolo qui:

Dicono di noi…

Alcuni articoli apparsi sulla stampa e sul web

Video dell’edizione 2017

(courtesy of Dee jay Dinero)

Video dell’edizione 2018

(courtesy of Frequency Brescia)

In collaborazione con

Con la partecipazione di

 

Historical Aircraft Group

Comune di Ceresara

Dove siamo

45° 15′  52″ N – 10° 31′ 54″ E

Via S. Martino 68 – Ceresara (MN)

 

Meteorologia aeronautica 

Aeroporto di Verona
VILLAFRANCA(CV/M
Metar
LIPX 232220Z VRB02KT CAVOK 26/19 Q1017

22:20 UTC

Wind: ° 2kt

Visibility:

Sky:

Temp: 26 deg C / 78.8 deg F

Dewpoint: 19 deg C / 66.2 deg F

Pressure: 1017 hPa

TAF
TAF LIPX 232015Z 2321/2406 04005KT CAVOK

Aeroporto di Brescia
BRESCIA/MONTICHI
Metar
LIPO 232150Z 04003KT CAVOK 28/20 Q1017

21:50 UTC

Wind: 40° 3kt

Visibility:

Sky:

Temp: 28 deg C / 82.4 deg F

Dewpoint: 20 deg C / 68 deg F

Pressure: 1017 hPa

TAF
TAF LIPO 231700Z 2318/2418 VRB05KT CAVOK

Aeroporto di Parma
PARMA
Metar
LIMP 231850Z 09003KT CAVOK 30/21 Q1016

18:50 UTC

Wind: 90° 3kt

Visibility:

Sky:

Temp: 30 deg C / 86 deg F

Dewpoint: 21 deg C / 69.8 deg F

Pressure: 1016 hPa

TAF
TAF LIMP 231700Z 2318/2418 VRB05KT CAVOK

Le domande più frequenti…

Contatti

Per saperne di più, scrivici!

1 + 11 =

Antispam: rispondere alla domanda prima di inviare il messaggio

Il copyright delle immagini e dei video di questo sito appartiene ai loro autori. Nonstante le ricerche, non sempre è stato possibile contattare l'autore per richiedere l'autorizzazione alla pubblicazione. I detentori del copyright delle immagini qui utilizzate possono contattarci per vedere riconosciuto il loro diritto di citazione, o, se preferiscono, farle rimuovere.

16618total sites visits.